sensor_id;sensor_type;location;lat;lon;timestamp;P1;durP1;ratioP1;P2;durP2;ratioP2
68097;SDS011;54886;47.036;15.466;2023-02-07T00:02:11;19.92;;;10.32;;
68097;SDS011;54886;47.036;15.466;2023-02-07T00:04:37;19.08;;;10.65;;
68097;SDS011;54886;47.036;15.466;2023-02-07T00:10:24;21.80;;;10.98;;
68097;SDS011;54886;47.036;15.466;2023-02-07T00:16:11;20.35;;;10.35;;
68097;SDS011;54886;47.036;15.466;2023-02-07T00:21:59;17.48;;;9.43;;
68097;SDS011;54886;47.036;15.466;2023-02-07T00:24:25;22.63;;;10.63;;
68097;SDS011;54886;47.036;15.466;2023-02-07T00:26:50;18.92;;;9.68;;
68097;SDS011;54886;47.036;15.466;2023-02-07T00:32:38;18.63;;;9.73;;
68097;SDS011;54886;47.036;15.466;2023-02-07T00:35:06;19.02;;;9.55;;
68097;SDS011;54886;47.036;15.466;2023-02-07T00:37:32;20.20;;;10.50;;
68097;SDS011;54886;47.036;15.466;2023-02-07T00:39:58;22.67;;;11.05;;
68097;SDS011;54886;47.036;15.466;2023-02-07T00:42:23;21.55;;;10.10;;
68097;SDS011;54886;47.036;15.466;2023-02-07T00:44:49;26.05;;;11.13;;
68097;SDS011;54886;47.036;15.466;2023-02-07T00:47:15;16.90;;;9.40;;
68097;SDS011;54886;47.036;15.466;2023-02-07T00:53:02;19.13;;;9.57;;
68097;SDS011;54886;47.036;15.466;2023-02-07T00:55:28;20.27;;;10.45;;
68097;SDS011;54886;47.036;15.466;2023-02-07T00:57:53;20.55;;;9.98;;
68097;SDS011;54886;47.036;15.466;2023-02-07T01:00:22;22.17;;;10.00;;
68097;SDS011;54886;47.036;15.466;2023-02-07T01:06:09;18.58;;;9.85;;
68097;SDS011;54886;47.036;15.466;2023-02-07T01:11:57;18.05;;;9.50;;
68097;SDS011;54886;47.036;15.466;2023-02-07T01:17:44;18.73;;;8.93;;
68097;SDS011;54886;47.036;15.466;2023-02-07T01:23:31;18.35;;;10.15;;
68097;SDS011;54886;47.036;15.466;2023-02-07T01:25:57;19.10;;;9.27;;
68097;SDS011;54886;47.036;15.466;2023-02-07T01:28:23;17.77;;;9.52;;
68097;SDS011;54886;47.036;15.466;2023-02-07T01:34:12;19.35;;;10.18;;
68097;SDS011;54886;47.036;15.466;2023-02-07T01:36:38;21.15;;;11.27;;
68097;SDS011;54886;47.036;15.466;2023-02-07T01:39:06;20.15;;;11.18;;
68097;SDS011;54886;47.036;15.466;2023-02-07T01:41:32;21.95;;;10.68;;
68097;SDS011;54886;47.036;15.466;2023-02-07T01:43:59;19.02;;;10.32;;
68097;SDS011;54886;47.036;15.466;2023-02-07T01:49:03;20.08;;;8.93;;
68097;SDS011;54886;47.036;15.466;2023-02-07T01:54:54;21.98;;;9.82;;
68097;SDS011;54886;47.036;15.466;2023-02-07T01:57:23;24.10;;;10.65;;
68097;SDS011;54886;47.036;15.466;2023-02-07T01:59:51;20.95;;;10.65;;
68097;SDS011;54886;47.036;15.466;2023-02-07T02:02:21;19.02;;;9.57;;
68097;SDS011;54886;47.036;15.466;2023-02-07T02:04:49;25.17;;;11.40;;
68097;SDS011;54886;47.036;15.466;2023-02-07T02:07:16;30.38;;;11.00;;
68097;SDS011;54886;47.036;15.466;2023-02-07T02:09:42;19.70;;;9.82;;
68097;SDS011;54886;47.036;15.466;2023-02-07T02:33:56;16.65;;;8.68;;
68097;SDS011;54886;47.036;15.466;2023-02-07T02:40:01;16.60;;;8.63;;
68097;SDS011;54886;47.036;15.466;2023-02-07T02:45:58;17.45;;;9.18;;
68097;SDS011;54886;47.036;15.466;2023-02-07T02:48:31;18.15;;;9.48;;
68097;SDS011;54886;47.036;15.466;2023-02-07T02:50:59;15.07;;;8.18;;
68097;SDS011;54886;47.036;15.466;2023-02-07T03:05:54;18.92;;;8.80;;
68097;SDS011;54886;47.036;15.466;2023-02-07T03:11:54;18.42;;;9.00;;
68097;SDS011;54886;47.036;15.466;2023-02-07T03:14:32;16.45;;;8.18;;
68097;SDS011;54886;47.036;15.466;2023-02-07T03:20:31;16.23;;;9.32;;
68097;SDS011;54886;47.036;15.466;2023-02-07T03:26:23;15.95;;;7.35;;
68097;SDS011;54886;47.036;15.466;2023-02-07T03:32:11;17.15;;;8.30;;
68097;SDS011;54886;47.036;15.466;2023-02-07T03:38:00;15.52;;;7.90;;
68097;SDS011;54886;47.036;15.466;2023-02-07T03:40:28;16.88;;;9.23;;
68097;SDS011;54886;47.036;15.466;2023-02-07T03:46:19;17.70;;;8.30;;
68097;SDS011;54886;47.036;15.466;2023-02-07T03:52:07;15.25;;;8.68;;
68097;SDS011;54886;47.036;15.466;2023-02-07T03:57:57;17.38;;;9.13;;
68097;SDS011;54886;47.036;15.466;2023-02-07T04:00:23;19.65;;;9.07;;
68097;SDS011;54886;47.036;15.466;2023-02-07T04:02:49;22.17;;;10.05;;
68097;SDS011;54886;47.036;15.466;2023-02-07T04:08:39;16.33;;;8.50;;
68097;SDS011;54886;47.036;15.466;2023-02-07T04:11:05;17.13;;;8.45;;
68097;SDS011;54886;47.036;15.466;2023-02-07T04:13:30;16.10;;;9.20;;
68097;SDS011;54886;47.036;15.466;2023-02-07T04:19:18;20.55;;;8.77;;
68097;SDS011;54886;47.036;15.466;2023-02-07T04:21:43;16.65;;;8.85;;
68097;SDS011;54886;47.036;15.466;2023-02-07T04:24:10;17.05;;;8.75;;
68097;SDS011;54886;47.036;15.466;2023-02-07T04:27:14;16.58;;;9.13;;
68097;SDS011;54886;47.036;15.466;2023-02-07T04:33:01;16.65;;;9.13;;
68097;SDS011;54886;47.036;15.466;2023-02-07T04:38:48;23.63;;;10.30;;
68097;SDS011;54886;47.036;15.466;2023-02-07T04:44:41;20.15;;;9.23;;
68097;SDS011;54886;47.036;15.466;2023-02-07T04:47:06;16.70;;;9.63;;
68097;SDS011;54886;47.036;15.466;2023-02-07T04:49:32;23.52;;;9.75;;
68097;SDS011;54886;47.036;15.466;2023-02-07T04:51:57;25.50;;;10.77;;
68097;SDS011;54886;47.036;15.466;2023-02-07T04:54:23;19.08;;;9.82;;
68097;SDS011;54886;47.036;15.466;2023-02-07T04:56:49;17.52;;;9.27;;
68097;SDS011;54886;47.036;15.466;2023-02-07T04:59:14;19.35;;;9.88;;
68097;SDS011;54886;47.036;15.466;2023-02-07T05:05:01;18.48;;;9.07;;
68097;SDS011;54886;47.036;15.466;2023-02-07T05:07:27;20.35;;;9.13;;
68097;SDS011;54886;47.036;15.466;2023-02-07T05:13:14;15.43;;;8.18;;
68097;SDS011;54886;47.036;15.466;2023-02-07T05:15:40;18.27;;;8.73;;
68097;SDS011;54886;47.036;15.466;2023-02-07T05:19:02;18.70;;;9.43;;
68097;SDS011;54886;47.036;15.466;2023-02-07T05:24:50;16.33;;;8.88;;
68097;SDS011;54886;47.036;15.466;2023-02-07T05:30:37;19.33;;;9.40;;
68097;SDS011;54886;47.036;15.466;2023-02-07T05:36:24;17.52;;;9.13;;
68097;SDS011;54886;47.036;15.466;2023-02-07T05:38:51;16.63;;;9.77;;
68097;SDS011;54886;47.036;15.466;2023-02-07T05:44:41;18.58;;;7.82;;
68097;SDS011;54886;47.036;15.466;2023-02-07T05:50:28;15.75;;;8.52;;
68097;SDS011;54886;47.036;15.466;2023-02-07T05:55:59;10.75;;;6.93;;
68097;SDS011;54886;47.036;15.466;2023-02-07T05:58:24;16.70;;;8.20;;
68097;SDS011;54886;47.036;15.466;2023-02-07T06:00:50;17.58;;;8.38;;
68097;SDS011;54886;47.036;15.466;2023-02-07T06:03:15;17.98;;;9.18;;
68097;SDS011;54886;47.036;15.466;2023-02-07T06:05:40;16.38;;;8.40;;
68097;SDS011;54886;47.036;15.466;2023-02-07T06:08:06;18.05;;;8.75;;
68097;SDS011;54886;47.036;15.466;2023-02-07T06:10:31;19.45;;;9.75;;
68097;SDS011;54886;47.036;15.466;2023-02-07T06:12:59;19.42;;;8.98;;
68097;SDS011;54886;47.036;15.466;2023-02-07T06:15:25;16.10;;;8.77;;
68097;SDS011;54886;47.036;15.466;2023-02-07T06:17:50;16.90;;;8.27;;
68097;SDS011;54886;47.036;15.466;2023-02-07T06:20:16;16.85;;;8.65;;
68097;SDS011;54886;47.036;15.466;2023-02-07T06:22:41;19.65;;;9.48;;
68097;SDS011;54886;47.036;15.466;2023-02-07T06:25:09;21.20;;;8.35;;
68097;SDS011;54886;47.036;15.466;2023-02-07T06:27:36;18.15;;;9.27;;
68097;SDS011;54886;47.036;15.466;2023-02-07T06:30:05;23.80;;;11.15;;
68097;SDS011;54886;47.036;15.466;2023-02-07T06:32:32;18.90;;;10.70;;
68097;SDS011;54886;47.036;15.466;2023-02-07T06:34:57;21.98;;;10.90;;
68097;SDS011;54886;47.036;15.466;2023-02-07T06:37:23;23.60;;;11.18;;
68097;SDS011;54886;47.036;15.466;2023-02-07T06:39:50;24.10;;;11.82;;
68097;SDS011;54886;47.036;15.466;2023-02-07T06:42:16;20.23;;;11.52;;
68097;SDS011;54886;47.036;15.466;2023-02-07T06:44:42;24.48;;;10.63;;
68097;SDS011;54886;47.036;15.466;2023-02-07T06:47:07;28.48;;;12.00;;
68097;SDS011;54886;47.036;15.466;2023-02-07T06:49:33;23.20;;;10.65;;
68097;SDS011;54886;47.036;15.466;2023-02-07T06:51:58;23.13;;;11.60;;
68097;SDS011;54886;47.036;15.466;2023-02-07T06:54:23;21.13;;;10.48;;
68097;SDS011;54886;47.036;15.466;2023-02-07T06:56:49;22.00;;;11.07;;
68097;SDS011;54886;47.036;15.466;2023-02-07T06:59:14;21.52;;;11.07;;
68097;SDS011;54886;47.036;15.466;2023-02-07T07:01:40;22.15;;;12.55;;
68097;SDS011;54886;47.036;15.466;2023-02-07T07:04:06;21.35;;;11.02;;
68097;SDS011;54886;47.036;15.466;2023-02-07T07:06:33;18.23;;;10.63;;
68097;SDS011;54886;47.036;15.466;2023-02-07T07:08:59;25.83;;;12.75;;
68097;SDS011;54886;47.036;15.466;2023-02-07T07:11:24;21.63;;;11.25;;
68097;SDS011;54886;47.036;15.466;2023-02-07T07:13:50;31.33;;;12.73;;
68097;SDS011;54886;47.036;15.466;2023-02-07T07:16:15;29.38;;;12.25;;
68097;SDS011;54886;47.036;15.466;2023-02-07T07:18:41;24.35;;;11.55;;
68097;SDS011;54886;47.036;15.466;2023-02-07T07:21:09;24.33;;;12.40;;
68097;SDS011;54886;47.036;15.466;2023-02-07T07:23:34;24.25;;;12.32;;
68097;SDS011;54886;47.036;15.466;2023-02-07T07:26:00;23.92;;;11.85;;
68097;SDS011;54886;47.036;15.466;2023-02-07T07:28:27;25.02;;;11.45;;
68097;SDS011;54886;47.036;15.466;2023-02-07T07:30:53;21.20;;;11.00;;
68097;SDS011;54886;47.036;15.466;2023-02-07T07:33:18;23.88;;;10.98;;
68097;SDS011;54886;47.036;15.466;2023-02-07T07:35:43;21.98;;;11.70;;
68097;SDS011;54886;47.036;15.466;2023-02-07T07:38:09;23.00;;;10.80;;
68097;SDS011;54886;47.036;15.466;2023-02-07T07:40:34;19.15;;;11.13;;
68097;SDS011;54886;47.036;15.466;2023-02-07T07:43:00;21.50;;;10.45;;
68097;SDS011;54886;47.036;15.466;2023-02-07T07:45:25;20.65;;;10.48;;
68097;SDS011;54886;47.036;15.466;2023-02-07T07:47:50;22.42;;;9.60;;
68097;SDS011;54886;47.036;15.466;2023-02-07T07:50:16;19.95;;;10.52;;
68097;SDS011;54886;47.036;15.466;2023-02-07T07:52:41;21.92;;;9.70;;
68097;SDS011;54886;47.036;15.466;2023-02-07T07:55:07;19.30;;;9.98;;
68097;SDS011;54886;47.036;15.466;2023-02-07T07:57:33;19.85;;;11.20;;
68097;SDS011;54886;47.036;15.466;2023-02-07T07:59:59;20.73;;;11.02;;
68097;SDS011;54886;47.036;15.466;2023-02-07T08:02:25;15.95;;;6.78;;
68097;SDS011;54886;47.036;15.466;2023-02-07T08:04:51;13.98;;;6.22;;
68097;SDS011;54886;47.036;15.466;2023-02-07T08:07:16;12.68;;;5.85;;
68097;SDS011;54886;47.036;15.466;2023-02-07T08:09:42;17.25;;;5.80;;
68097;SDS011;54886;47.036;15.466;2023-02-07T08:12:10;15.35;;;5.88;;
68097;SDS011;54886;47.036;15.466;2023-02-07T08:14:35;16.80;;;5.55;;
68097;SDS011;54886;47.036;15.466;2023-02-07T08:17:02;13.10;;;5.45;;
68097;SDS011;54886;47.036;15.466;2023-02-07T08:19:28;13.10;;;5.25;;
68097;SDS011;54886;47.036;15.466;2023-02-07T08:21:53;11.98;;;5.65;;
68097;SDS011;54886;47.036;15.466;2023-02-07T08:24:19;12.00;;;5.43;;
68097;SDS011;54886;47.036;15.466;2023-02-07T08:26:44;11.85;;;4.47;;
68097;SDS011;54886;47.036;15.466;2023-02-07T08:29:10;12.75;;;5.40;;
68097;SDS011;54886;47.036;15.466;2023-02-07T08:31:38;11.40;;;5.72;;
68097;SDS011;54886;47.036;15.466;2023-02-07T08:34:06;12.25;;;5.95;;
68097;SDS011;54886;47.036;15.466;2023-02-07T08:36:32;17.38;;;6.15;;
68097;SDS011;54886;47.036;15.466;2023-02-07T08:39:01;16.15;;;7.10;;
68097;SDS011;54886;47.036;15.466;2023-02-07T08:41:26;13.00;;;6.40;;
68097;SDS011;54886;47.036;15.466;2023-02-07T08:43:51;14.93;;;6.57;;
68097;SDS011;54886;47.036;15.466;2023-02-07T08:46:17;13.82;;;6.35;;
68097;SDS011;54886;47.036;15.466;2023-02-07T08:48:42;16.85;;;7.07;;
68097;SDS011;54886;47.036;15.466;2023-02-07T08:51:08;15.63;;;6.55;;
68097;SDS011;54886;47.036;15.466;2023-02-07T08:53:34;11.95;;;5.38;;
68097;SDS011;54886;47.036;15.466;2023-02-07T08:56:00;13.45;;;6.20;;
68097;SDS011;54886;47.036;15.466;2023-02-07T08:58:25;16.17;;;6.60;;
68097;SDS011;54886;47.036;15.466;2023-02-07T09:00:51;12.13;;;6.03;;
68097;SDS011;54886;47.036;15.466;2023-02-07T09:03:25;16.60;;;6.53;;
68097;SDS011;54886;47.036;15.466;2023-02-07T09:05:56;14.35;;;6.70;;
68097;SDS011;54886;47.036;15.466;2023-02-07T09:08:23;15.70;;;7.18;;
68097;SDS011;54886;47.036;15.466;2023-02-07T09:10:48;15.27;;;6.70;;
68097;SDS011;54886;47.036;15.466;2023-02-07T09:13:13;15.05;;;7.10;;
68097;SDS011;54886;47.036;15.466;2023-02-07T09:15:41;13.68;;;6.63;;
68097;SDS011;54886;47.036;15.466;2023-02-07T09:18:06;15.73;;;6.30;;
68097;SDS011;54886;47.036;15.466;2023-02-07T09:20:34;15.88;;;7.20;;
68097;SDS011;54886;47.036;15.466;2023-02-07T09:23:01;16.90;;;6.75;;
68097;SDS011;54886;47.036;15.466;2023-02-07T09:25:45;13.55;;;6.50;;
68097;SDS011;54886;47.036;15.466;2023-02-07T09:28:11;12.35;;;6.63;;
68097;SDS011;54886;47.036;15.466;2023-02-07T09:30:41;16.50;;;8.13;;
68097;SDS011;54886;47.036;15.466;2023-02-07T09:33:10;17.08;;;8.07;;
68097;SDS011;54886;47.036;15.466;2023-02-07T09:35:40;17.08;;;7.93;;
68097;SDS011;54886;47.036;15.466;2023-02-07T09:38:18;16.98;;;9.30;;
68097;SDS011;54886;47.036;15.466;2023-02-07T09:40:47;19.30;;;8.68;;
68097;SDS011;54886;47.036;15.466;2023-02-07T09:43:37;17.85;;;9.57;;
68097;SDS011;54886;47.036;15.466;2023-02-07T09:48:52;16.20;;;8.23;;
68097;SDS011;54886;47.036;15.466;2023-02-07T09:51:23;17.10;;;8.70;;
68097;SDS011;54886;47.036;15.466;2023-02-07T09:54:10;19.65;;;9.48;;
68097;SDS011;54886;47.036;15.466;2023-02-07T09:56:51;18.55;;;9.65;;
68097;SDS011;54886;47.036;15.466;2023-02-07T09:59:20;20.40;;;10.05;;
68097;SDS011;54886;47.036;15.466;2023-02-07T10:01:55;19.02;;;10.52;;
68097;SDS011;54886;47.036;15.466;2023-02-07T10:04:42;22.55;;;10.10;;
68097;SDS011;54886;47.036;15.466;2023-02-07T10:07:10;23.48;;;10.23;;
68097;SDS011;54886;47.036;15.466;2023-02-07T10:09:41;17.23;;;9.45;;
68097;SDS011;54886;47.036;15.466;2023-02-07T10:20:01;21.13;;;9.80;;
68097;SDS011;54886;47.036;15.466;2023-02-07T10:30:37;19.55;;;9.60;;
68097;SDS011;54886;47.036;15.466;2023-02-07T10:33:15;19.77;;;9.82;;
68097;SDS011;54886;47.036;15.466;2023-02-07T10:35:43;18.58;;;9.38;;
68097;SDS011;54886;47.036;15.466;2023-02-07T10:38:15;19.13;;;9.70;;
68097;SDS011;54886;47.036;15.466;2023-02-07T10:41:20;18.83;;;9.80;;
68097;SDS011;54886;47.036;15.466;2023-02-07T10:43:58;18.10;;;9.85;;
68097;SDS011;54886;47.036;15.466;2023-02-07T10:46:25;16.05;;;8.77;;
68097;SDS011;54886;47.036;15.466;2023-02-07T10:48:53;16.23;;;8.85;;
68097;SDS011;54886;47.036;15.466;2023-02-07T10:54:20;17.77;;;9.18;;
68097;SDS011;54886;47.036;15.466;2023-02-07T10:56:49;19.38;;;9.65;;
68097;SDS011;54886;47.036;15.466;2023-02-07T11:04:53;18.75;;;9.20;;
68097;SDS011;54886;47.036;15.466;2023-02-07T11:07:20;16.80;;;9.07;;
68097;SDS011;54886;47.036;15.466;2023-02-07T11:09:47;18.85;;;9.50;;
68097;SDS011;54886;47.036;15.466;2023-02-07T11:12:14;17.05;;;9.43;;
68097;SDS011;54886;47.036;15.466;2023-02-07T11:14:59;21.58;;;10.15;;
68097;SDS011;54886;47.036;15.466;2023-02-07T11:17:26;19.08;;;9.27;;
68097;SDS011;54886;47.036;15.466;2023-02-07T11:19:53;18.00;;;8.80;;
68097;SDS011;54886;47.036;15.466;2023-02-07T11:22:19;15.95;;;9.10;;
68097;SDS011;54886;47.036;15.466;2023-02-07T11:24:47;17.65;;;9.25;;
68097;SDS011;54886;47.036;15.466;2023-02-07T11:27:16;18.38;;;9.40;;
68097;SDS011;54886;47.036;15.466;2023-02-07T11:29:57;17.52;;;9.75;;
68097;SDS011;54886;47.036;15.466;2023-02-07T11:32:25;17.55;;;8.98;;
68097;SDS011;54886;47.036;15.466;2023-02-07T11:34:55;18.05;;;9.00;;
68097;SDS011;54886;47.036;15.466;2023-02-07T11:39:54;19.00;;;9.50;;
68097;SDS011;54886;47.036;15.466;2023-02-07T11:42:38;17.20;;;8.88;;
68097;SDS011;54886;47.036;15.466;2023-02-07T11:45:05;18.25;;;9.23;;
68097;SDS011;54886;47.036;15.466;2023-02-07T11:47:39;16.83;;;8.73;;
68097;SDS011;54886;47.036;15.466;2023-02-07T11:50:07;15.77;;;8.52;;
68097;SDS011;54886;47.036;15.466;2023-02-07T11:52:47;18.27;;;8.77;;
68097;SDS011;54886;47.036;15.466;2023-02-07T11:55:16;18.63;;;8.73;;
68097;SDS011;54886;47.036;15.466;2023-02-07T11:57:54;17.48;;;8.80;;
68097;SDS011;54886;47.036;15.466;2023-02-07T12:00:24;15.20;;;8.23;;
68097;SDS011;54886;47.036;15.466;2023-02-07T12:03:00;15.07;;;7.90;;
68097;SDS011;54886;47.036;15.466;2023-02-07T12:05:42;15.48;;;7.30;;
68097;SDS011;54886;47.036;15.466;2023-02-07T12:08:14;15.63;;;7.90;;
68097;SDS011;54886;47.036;15.466;2023-02-07T12:10:49;15.30;;;8.50;;
68097;SDS011;54886;47.036;15.466;2023-02-07T12:13:32;18.05;;;8.90;;
68097;SDS011;54886;47.036;15.466;2023-02-07T12:18:54;17.27;;;8.52;;
68097;SDS011;54886;47.036;15.466;2023-02-07T12:21:34;15.82;;;7.75;;
68097;SDS011;54886;47.036;15.466;2023-02-07T12:35:14;15.23;;;7.67;;
68097;SDS011;54886;47.036;15.466;2023-02-07T12:40:37;13.35;;;6.50;;
68097;SDS011;54886;47.036;15.466;2023-02-07T12:43:11;11.77;;;6.55;;
68097;SDS011;54886;47.036;15.466;2023-02-07T12:54:05;11.27;;;5.45;;
68097;SDS011;54886;47.036;15.466;2023-02-07T12:56:52;9.18;;;5.38;;
68097;SDS011;54886;47.036;15.466;2023-02-07T12:59:41;11.82;;;6.32;;
68097;SDS011;54886;47.036;15.466;2023-02-07T13:19:25;11.45;;;6.00;;
68097;SDS011;54886;47.036;15.466;2023-02-07T13:24:34;12.45;;;6.50;;
68097;SDS011;54886;47.036;15.466;2023-02-07T13:27:03;11.02;;;6.40;;
68097;SDS011;54886;47.036;15.466;2023-02-07T13:29:33;13.23;;;6.25;;
68097;SDS011;54886;47.036;15.466;2023-02-07T13:32:01;13.13;;;7.03;;
68097;SDS011;54886;47.036;15.466;2023-02-07T13:34:35;12.95;;;5.90;;
68097;SDS011;54886;47.036;15.466;2023-02-07T13:37:03;9.85;;;5.47;;
68097;SDS011;54886;47.036;15.466;2023-02-07T13:45:21;12.05;;;5.60;;
68097;SDS011;54886;47.036;15.466;2023-02-07T13:47:56;20.90;;;7.60;;
68097;SDS011;54886;47.036;15.466;2023-02-07T13:50:42;11.60;;;5.75;;
68097;SDS011;54886;47.036;15.466;2023-02-07T13:56:11;13.02;;;6.53;;
68097;SDS011;54886;47.036;15.466;2023-02-07T13:58:56;11.57;;;6.10;;
68097;SDS011;54886;47.036;15.466;2023-02-07T14:01:51;12.88;;;6.68;;
68097;SDS011;54886;47.036;15.466;2023-02-07T14:04:21;13.85;;;7.05;;
68097;SDS011;54886;47.036;15.466;2023-02-07T14:09:22;14.93;;;7.22;;
68097;SDS011;54886;47.036;15.466;2023-02-07T14:12:00;15.40;;;7.32;;
68097;SDS011;54886;47.036;15.466;2023-02-07T14:14:33;14.23;;;7.28;;
68097;SDS011;54886;47.036;15.466;2023-02-07T14:17:07;14.50;;;7.35;;
68097;SDS011;54886;47.036;15.466;2023-02-07T14:22:26;14.32;;;7.35;;
68097;SDS011;54886;47.036;15.466;2023-02-07T14:30:34;13.65;;;7.53;;
68097;SDS011;54886;47.036;15.466;2023-02-07T14:38:40;14.25;;;6.57;;
68097;SDS011;54886;47.036;15.466;2023-02-07T14:41:11;13.80;;;6.53;;
68097;SDS011;54886;47.036;15.466;2023-02-07T14:46:08;15.10;;;7.40;;
68097;SDS011;54886;47.036;15.466;2023-02-07T14:51:16;13.45;;;6.80;;
68097;SDS011;54886;47.036;15.466;2023-02-07T14:54:13;12.32;;;7.32;;
68097;SDS011;54886;47.036;15.466;2023-02-07T14:56:44;14.02;;;7.57;;
68097;SDS011;54886;47.036;15.466;2023-02-07T14:59:12;16.17;;;8.50;;
68097;SDS011;54886;47.036;15.466;2023-02-07T15:01:42;18.67;;;9.25;;
68097;SDS011;54886;47.036;15.466;2023-02-07T15:04:08;17.20;;;8.90;;
68097;SDS011;54886;47.036;15.466;2023-02-07T15:06:41;15.55;;;9.50;;
68097;SDS011;54886;47.036;15.466;2023-02-07T15:09:44;19.10;;;10.55;;
68097;SDS011;54886;47.036;15.466;2023-02-07T15:12:04;18.42;;;9.02;;
68097;SDS011;54886;47.036;15.466;2023-02-07T15:14:33;17.80;;;8.70;;
68097;SDS011;54886;47.036;15.466;2023-02-07T15:17:00;15.43;;;8.50;;
68097;SDS011;54886;47.036;15.466;2023-02-07T15:19:33;17.75;;;8.98;;
68097;SDS011;54886;47.036;15.466;2023-02-07T15:22:03;18.38;;;9.27;;
68097;SDS011;54886;47.036;15.466;2023-02-07T15:24:39;20.35;;;9.57;;
68097;SDS011;54886;47.036;15.466;2023-02-07T15:27:18;17.63;;;9.27;;
68097;SDS011;54886;47.036;15.466;2023-02-07T15:29:53;15.75;;;8.65;;
68097;SDS011;54886;47.036;15.466;2023-02-07T15:32:24;19.58;;;9.63;;
68097;SDS011;54886;47.036;15.466;2023-02-07T15:34:57;18.85;;;9.30;;
68097;SDS011;54886;47.036;15.466;2023-02-07T15:37:36;14.80;;;8.27;;
68097;SDS011;54886;47.036;15.466;2023-02-07T15:40:02;16.10;;;7.95;;
68097;SDS011;54886;47.036;15.466;2023-02-07T15:42:27;14.52;;;8.00;;
68097;SDS011;54886;47.036;15.466;2023-02-07T15:44:54;15.98;;;8.05;;
68097;SDS011;54886;47.036;15.466;2023-02-07T15:50:05;18.73;;;8.43;;
68097;SDS011;54886;47.036;15.466;2023-02-07T15:55:17;13.27;;;7.60;;
68097;SDS011;54886;47.036;15.466;2023-02-07T15:57:58;15.43;;;8.05;;
68097;SDS011;54886;47.036;15.466;2023-02-07T16:00:28;16.48;;;8.55;;
68097;SDS011;54886;47.036;15.466;2023-02-07T16:02:59;14.40;;;8.07;;
68097;SDS011;54886;47.036;15.466;2023-02-07T16:05:36;15.80;;;8.13;;
68097;SDS011;54886;47.036;15.466;2023-02-07T16:11:14;14.75;;;7.65;;
68097;SDS011;54886;47.036;15.466;2023-02-07T16:13:45;15.20;;;7.85;;
68097;SDS011;54886;47.036;15.466;2023-02-07T16:16:18;14.90;;;8.20;;
68097;SDS011;54886;47.036;15.466;2023-02-07T16:18:48;16.77;;;8.32;;
68097;SDS011;54886;47.036;15.466;2023-02-07T16:23:54;15.23;;;8.57;;
68097;SDS011;54886;47.036;15.466;2023-02-07T16:26:36;16.13;;;7.60;;
68097;SDS011;54886;47.036;15.466;2023-02-07T16:29:05;16.00;;;8.65;;
68097;SDS011;54886;47.036;15.466;2023-02-07T16:31:31;15.27;;;8.75;;
68097;SDS011;54886;47.036;15.466;2023-02-07T16:33:57;18.40;;;8.60;;
68097;SDS011;54886;47.036;15.466;2023-02-07T16:36:23;16.50;;;9.10;;
68097;SDS011;54886;47.036;15.466;2023-02-07T16:38:49;15.35;;;8.00;;
68097;SDS011;54886;47.036;15.466;2023-02-07T16:41:20;18.17;;;8.93;;
68097;SDS011;54886;47.036;15.466;2023-02-07T16:43:56;19.17;;;8.57;;
68097;SDS011;54886;47.036;15.466;2023-02-07T16:46:23;16.63;;;9.02;;
68097;SDS011;54886;47.036;15.466;2023-02-07T16:48:48;22.83;;;10.82;;
68097;SDS011;54886;47.036;15.466;2023-02-07T16:51:13;19.75;;;9.52;;
68097;SDS011;54886;47.036;15.466;2023-02-07T16:53:39;21.73;;;10.23;;
68097;SDS011;54886;47.036;15.466;2023-02-07T16:56:09;19.02;;;9.75;;
68097;SDS011;54886;47.036;15.466;2023-02-07T16:58:42;19.77;;;9.43;;
68097;SDS011;54886;47.036;15.466;2023-02-07T17:01:14;20.95;;;10.20;;
68097;SDS011;54886;47.036;15.466;2023-02-07T17:03:42;18.40;;;9.70;;
68097;SDS011;54886;47.036;15.466;2023-02-07T17:06:14;21.42;;;9.85;;
68097;SDS011;54886;47.036;15.466;2023-02-07T17:08:41;19.67;;;9.10;;
68097;SDS011;54886;47.036;15.466;2023-02-07T17:11:06;18.35;;;9.98;;
68097;SDS011;54886;47.036;15.466;2023-02-07T17:13:36;18.30;;;10.07;;
68097;SDS011;54886;47.036;15.466;2023-02-07T17:16:07;20.05;;;9.95;;
68097;SDS011;54886;47.036;15.466;2023-02-07T17:18:37;25.30;;;10.80;;
68097;SDS011;54886;47.036;15.466;2023-02-07T17:21:02;30.27;;;10.63;;
68097;SDS011;54886;47.036;15.466;2023-02-07T17:23:28;20.05;;;10.40;;
68097;SDS011;54886;47.036;15.466;2023-02-07T17:25:53;17.77;;;10.27;;
68097;SDS011;54886;47.036;15.466;2023-02-07T17:28:18;22.50;;;11.15;;
68097;SDS011;54886;47.036;15.466;2023-02-07T17:30:44;21.65;;;11.07;;
68097;SDS011;54886;47.036;15.466;2023-02-07T17:33:09;19.75;;;10.45;;
68097;SDS011;54886;47.036;15.466;2023-02-07T17:35:35;19.50;;;11.15;;
68097;SDS011;54886;47.036;15.466;2023-02-07T17:38:01;24.38;;;9.85;;
68097;SDS011;54886;47.036;15.466;2023-02-07T17:42:55;25.52;;;10.13;;
68097;SDS011;54886;47.036;15.466;2023-02-07T17:45:22;19.00;;;9.27;;
68097;SDS011;54886;47.036;15.466;2023-02-07T17:47:50;15.43;;;9.70;;
68097;SDS011;54886;47.036;15.466;2023-02-07T17:50:17;27.63;;;11.73;;
68097;SDS011;54886;47.036;15.466;2023-02-07T17:52:44;18.58;;;10.43;;
68097;SDS011;54886;47.036;15.466;2023-02-07T17:55:10;22.52;;;10.00;;
68097;SDS011;54886;47.036;15.466;2023-02-07T17:57:36;22.60;;;11.20;;
68097;SDS011;54886;47.036;15.466;2023-02-07T18:00:02;22.50;;;10.88;;
68097;SDS011;54886;47.036;15.466;2023-02-07T18:02:28;27.98;;;12.98;;
68097;SDS011;54886;47.036;15.466;2023-02-07T18:04:54;22.88;;;12.48;;
68097;SDS011;54886;47.036;15.466;2023-02-07T18:07:21;25.85;;;12.90;;
68097;SDS011;54886;47.036;15.466;2023-02-07T18:09:47;26.90;;;11.55;;
68097;SDS011;54886;47.036;15.466;2023-02-07T18:12:12;20.55;;;10.98;;
68097;SDS011;54886;47.036;15.466;2023-02-07T18:14:38;21.92;;;11.43;;
68097;SDS011;54886;47.036;15.466;2023-02-07T18:17:03;26.08;;;11.38;;
68097;SDS011;54886;47.036;15.466;2023-02-07T18:19:28;26.00;;;12.10;;
68097;SDS011;54886;47.036;15.466;2023-02-07T18:21:56;23.80;;;12.80;;
68097;SDS011;54886;47.036;15.466;2023-02-07T18:24:22;27.88;;;13.23;;
68097;SDS011;54886;47.036;15.466;2023-02-07T18:26:47;30.45;;;13.52;;
68097;SDS011;54886;47.036;15.466;2023-02-07T18:29:12;32.42;;;15.25;;
68097;SDS011;54886;47.036;15.466;2023-02-07T18:31:38;27.83;;;14.30;;
68097;SDS011;54886;47.036;15.466;2023-02-07T18:34:03;26.38;;;13.07;;
68097;SDS011;54886;47.036;15.466;2023-02-07T18:36:29;24.45;;;12.98;;
68097;SDS011;54886;47.036;15.466;2023-02-07T18:39:00;27.58;;;12.82;;
68097;SDS011;54886;47.036;15.466;2023-02-07T18:41:26;28.30;;;13.15;;
68097;SDS011;54886;47.036;15.466;2023-02-07T18:43:53;25.17;;;11.95;;
68097;SDS011;54886;47.036;15.466;2023-02-07T18:46:19;27.08;;;13.60;;
68097;SDS011;54886;47.036;15.466;2023-02-07T18:48:45;28.23;;;13.93;;
68097;SDS011;54886;47.036;15.466;2023-02-07T18:51:15;30.17;;;14.15;;
68097;SDS011;54886;47.036;15.466;2023-02-07T18:53:41;30.65;;;15.40;;
68097;SDS011;54886;47.036;15.466;2023-02-07T18:56:09;33.97;;;14.90;;
68097;SDS011;54886;47.036;15.466;2023-02-07T18:58:37;31.35;;;14.30;;
68097;SDS011;54886;47.036;15.466;2023-02-07T19:01:06;23.10;;;12.68;;